sensor_id;sensor_type;location;lat;lon;timestamp;temperature;humidity
36132;DHT22;22185;48.738;9.324;2023-02-27T00:00:55;-0.60;99.90
36132;DHT22;22185;48.738;9.324;2023-02-27T00:02:58;-0.60;99.90
36132;DHT22;22185;48.738;9.324;2023-02-27T00:04:59;-0.60;99.90
36132;DHT22;22185;48.738;9.324;2023-02-27T00:07:01;-0.70;99.90
36132;DHT22;22185;48.738;9.324;2023-02-27T00:09:03;-0.60;99.90
36132;DHT22;22185;48.738;9.324;2023-02-27T00:11:04;-0.60;99.90
36132;DHT22;22185;48.738;9.324;2023-02-27T00:13:06;-0.70;99.90
36132;DHT22;22185;48.738;9.324;2023-02-27T00:15:09;-0.70;99.90
36132;DHT22;22185;48.738;9.324;2023-02-27T00:17:11;-0.70;99.90
36132;DHT22;22185;48.738;9.324;2023-02-27T00:19:12;-0.60;99.90
36132;DHT22;22185;48.738;9.324;2023-02-27T00:21:14;-0.60;99.90
36132;DHT22;22185;48.738;9.324;2023-02-27T00:23:16;-0.70;99.90
36132;DHT22;22185;48.738;9.324;2023-02-27T00:25:18;-0.60;99.90
36132;DHT22;22185;48.738;9.324;2023-02-27T00:27:21;-0.60;99.90
36132;DHT22;22185;48.738;9.324;2023-02-27T00:29:23;-0.60;99.90
36132;DHT22;22185;48.738;9.324;2023-02-27T00:31:25;-0.60;99.90
36132;DHT22;22185;48.738;9.324;2023-02-27T00:33:27;-0.70;99.90
36132;DHT22;22185;48.738;9.324;2023-02-27T00:35:29;-0.70;99.90
36132;DHT22;22185;48.738;9.324;2023-02-27T00:37:30;-0.70;99.90
36132;DHT22;22185;48.738;9.324;2023-02-27T00:39:32;-0.70;99.90
36132;DHT22;22185;48.738;9.324;2023-02-27T00:41:34;-0.70;99.90
36132;DHT22;22185;48.738;9.324;2023-02-27T00:43:35;-0.70;99.90
36132;DHT22;22185;48.738;9.324;2023-02-27T00:45:37;-0.60;99.90
36132;DHT22;22185;48.738;9.324;2023-02-27T00:47:39;-0.70;99.90
36132;DHT22;22185;48.738;9.324;2023-02-27T00:49:41;-0.80;99.90
36132;DHT22;22185;48.738;9.324;2023-02-27T00:51:43;-0.70;99.90
36132;DHT22;22185;48.738;9.324;2023-02-27T00:53:44;-0.70;99.90
36132;DHT22;22185;48.738;9.324;2023-02-27T00:55:46;-0.70;99.90
36132;DHT22;22185;48.738;9.324;2023-02-27T00:57:48;-0.70;99.90
36132;DHT22;22185;48.738;9.324;2023-02-27T00:59:50;-0.80;99.90
36132;DHT22;22185;48.738;9.324;2023-02-27T01:01:51;-0.70;99.90
36132;DHT22;22185;48.738;9.324;2023-02-27T01:03:53;-0.70;99.90
36132;DHT22;22185;48.738;9.324;2023-02-27T01:05:54;-0.80;99.90
36132;DHT22;22185;48.738;9.324;2023-02-27T01:07:56;-0.80;99.90
36132;DHT22;22185;48.738;9.324;2023-02-27T01:09:58;-0.80;99.90
36132;DHT22;22185;48.738;9.324;2023-02-27T01:11:59;-0.80;99.90
36132;DHT22;22185;48.738;9.324;2023-02-27T01:14:01;-0.80;99.90
36132;DHT22;22185;48.738;9.324;2023-02-27T01:16:03;-0.80;99.90
36132;DHT22;22185;48.738;9.324;2023-02-27T01:18:04;-0.80;99.90
36132;DHT22;22185;48.738;9.324;2023-02-27T01:20:07;-0.80;99.90
36132;DHT22;22185;48.738;9.324;2023-02-27T01:22:09;-0.90;99.90
36132;DHT22;22185;48.738;9.324;2023-02-27T01:24:10;-0.90;99.90
36132;DHT22;22185;48.738;9.324;2023-02-27T01:26:13;-0.80;99.90
36132;DHT22;22185;48.738;9.324;2023-02-27T01:28:14;-0.70;99.90
36132;DHT22;22185;48.738;9.324;2023-02-27T01:30:16;-0.90;99.90
36132;DHT22;22185;48.738;9.324;2023-02-27T01:32:17;-0.90;99.90
36132;DHT22;22185;48.738;9.324;2023-02-27T01:34:19;-0.90;99.90
36132;DHT22;22185;48.738;9.324;2023-02-27T01:36:21;-0.80;99.90
36132;DHT22;22185;48.738;9.324;2023-02-27T01:38:22;-0.80;99.90
36132;DHT22;22185;48.738;9.324;2023-02-27T01:40:24;-0.90;99.90
36132;DHT22;22185;48.738;9.324;2023-02-27T01:42:27;-1.00;99.90
36132;DHT22;22185;48.738;9.324;2023-02-27T01:44:29;-0.90;99.90
36132;DHT22;22185;48.738;9.324;2023-02-27T01:46:31;-0.90;99.90
36132;DHT22;22185;48.738;9.324;2023-02-27T01:48:34;-0.90;99.90
36132;DHT22;22185;48.738;9.324;2023-02-27T01:50:38;-0.90;99.90
36132;DHT22;22185;48.738;9.324;2023-02-27T01:52:42;-0.90;99.90
36132;DHT22;22185;48.738;9.324;2023-02-27T01:54:44;-0.90;99.90
36132;DHT22;22185;48.738;9.324;2023-02-27T01:56:46;-0.90;99.90
36132;DHT22;22185;48.738;9.324;2023-02-27T01:58:48;-1.00;99.90
36132;DHT22;22185;48.738;9.324;2023-02-27T02:00:50;-1.00;99.90
36132;DHT22;22185;48.738;9.324;2023-02-27T02:03:34;-0.90;99.90
36132;DHT22;22185;48.738;9.324;2023-02-27T02:05:16;-0.90;99.90
36132;DHT22;22185;48.738;9.324;2023-02-27T02:07:18;-0.90;99.90
36132;DHT22;22185;48.738;9.324;2023-02-27T02:09:21;-0.90;99.90
36132;DHT22;22185;48.738;9.324;2023-02-27T02:11:23;-0.90;99.90
36132;DHT22;22185;48.738;9.324;2023-02-27T02:13:26;-0.90;99.90
36132;DHT22;22185;48.738;9.324;2023-02-27T02:15:30;-1.00;99.90
36132;DHT22;22185;48.738;9.324;2023-02-27T02:17:36;-0.90;99.90
36132;DHT22;22185;48.738;9.324;2023-02-27T02:24:39;-0.90;99.90
36132;DHT22;22185;48.738;9.324;2023-02-27T02:33:28;-1.00;99.90
36132;DHT22;22185;48.738;9.324;2023-02-27T02:49:08;-0.90;99.90
36132;DHT22;22185;48.738;9.324;2023-02-27T02:51:34;-1.00;99.90
36132;DHT22;22185;48.738;9.324;2023-02-27T02:57:41;-1.00;99.90
36132;DHT22;22185;48.738;9.324;2023-02-27T02:59:46;-1.00;99.90
36132;DHT22;22185;48.738;9.324;2023-02-27T03:01:50;-1.00;99.90
36132;DHT22;22185;48.738;9.324;2023-02-27T03:03:55;-1.10;99.90
36132;DHT22;22185;48.738;9.324;2023-02-27T03:06:33;-1.00;99.90
36132;DHT22;22185;48.738;9.324;2023-02-27T03:08:31;-1.00;99.90
36132;DHT22;22185;48.738;9.324;2023-02-27T03:10:35;-1.10;99.90
36132;DHT22;22185;48.738;9.324;2023-02-27T03:12:39;-1.00;99.90
36132;DHT22;22185;48.738;9.324;2023-02-27T03:17:06;-1.10;99.90
36132;DHT22;22185;48.738;9.324;2023-02-27T03:19:10;-1.10;99.90
36132;DHT22;22185;48.738;9.324;2023-02-27T03:21:15;-1.10;99.90
36132;DHT22;22185;48.738;9.324;2023-02-27T03:23:22;-1.10;99.90
36132;DHT22;22185;48.738;9.324;2023-02-27T03:25:25;-1.10;99.90
36132;DHT22;22185;48.738;9.324;2023-02-27T03:27:31;-1.20;99.90
36132;DHT22;22185;48.738;9.324;2023-02-27T03:31:57;-1.10;99.90
36132;DHT22;22185;48.738;9.324;2023-02-27T03:34:17;-1.10;99.90
36132;DHT22;22185;48.738;9.324;2023-02-27T03:38:30;-1.20;99.90
36132;DHT22;22185;48.738;9.324;2023-02-27T03:42:42;-1.20;99.90
36132;DHT22;22185;48.738;9.324;2023-02-27T03:44:49;-1.20;99.90
36132;DHT22;22185;48.738;9.324;2023-02-27T03:46:52;-1.20;99.90
36132;DHT22;22185;48.738;9.324;2023-02-27T03:48:54;-1.10;99.90
36132;DHT22;22185;48.738;9.324;2023-02-27T03:50:56;-1.20;99.90
36132;DHT22;22185;48.738;9.324;2023-02-27T03:52:58;-1.20;99.90
36132;DHT22;22185;48.738;9.324;2023-02-27T03:55:05;-1.20;99.90
36132;DHT22;22185;48.738;9.324;2023-02-27T03:57:09;-1.10;99.90
36132;DHT22;22185;48.738;9.324;2023-02-27T03:59:12;-1.20;99.90
36132;DHT22;22185;48.738;9.324;2023-02-27T04:01:14;-1.20;99.90
36132;DHT22;22185;48.738;9.324;2023-02-27T04:05:48;-1.20;99.90
36132;DHT22;22185;48.738;9.324;2023-02-27T04:12:09;-1.20;99.90
36132;DHT22;22185;48.738;9.324;2023-02-27T04:14:35;-1.20;99.90
36132;DHT22;22185;48.738;9.324;2023-02-27T04:16:47;-1.30;99.90
36132;DHT22;22185;48.738;9.324;2023-02-27T04:23:22;-1.20;99.90
36132;DHT22;22185;48.738;9.324;2023-02-27T04:25:31;-1.20;99.90
36132;DHT22;22185;48.738;9.324;2023-02-27T04:31:57;-1.20;99.90
36132;DHT22;22185;48.738;9.324;2023-02-27T04:34:03;-1.20;99.90
36132;DHT22;22185;48.738;9.324;2023-02-27T04:36:15;-1.20;99.90
36132;DHT22;22185;48.738;9.324;2023-02-27T04:40:25;-1.20;99.90
36132;DHT22;22185;48.738;9.324;2023-02-27T04:42:28;-1.20;99.90
36132;DHT22;22185;48.738;9.324;2023-02-27T04:44:32;-1.20;99.90
36132;DHT22;22185;48.738;9.324;2023-02-27T04:46:35;-1.30;99.90
36132;DHT22;22185;48.738;9.324;2023-02-27T04:48:40;-1.20;99.90
36132;DHT22;22185;48.738;9.324;2023-02-27T04:50:49;-1.30;99.90
36132;DHT22;22185;48.738;9.324;2023-02-27T04:53:02;-1.30;99.90
36132;DHT22;22185;48.738;9.324;2023-02-27T04:55:13;-1.30;99.90
36132;DHT22;22185;48.738;9.324;2023-02-27T04:57:21;-1.20;99.90
36132;DHT22;22185;48.738;9.324;2023-02-27T04:59:26;-1.20;99.90
36132;DHT22;22185;48.738;9.324;2023-02-27T05:01:32;-1.20;99.90
36132;DHT22;22185;48.738;9.324;2023-02-27T05:03:36;-1.30;99.90
36132;DHT22;22185;48.738;9.324;2023-02-27T05:05:40;-1.20;99.90
36132;DHT22;22185;48.738;9.324;2023-02-27T05:07:45;-1.30;99.90
36132;DHT22;22185;48.738;9.324;2023-02-27T05:09:52;-1.30;99.90
36132;DHT22;22185;48.738;9.324;2023-02-27T05:11:57;-1.30;99.90
36132;DHT22;22185;48.738;9.324;2023-02-27T05:14:07;-1.30;99.90
36132;DHT22;22185;48.738;9.324;2023-02-27T05:16:31;-1.30;99.90
36132;DHT22;22185;48.738;9.324;2023-02-27T05:18:40;-1.30;99.90
36132;DHT22;22185;48.738;9.324;2023-02-27T05:23:02;-1.20;99.90
36132;DHT22;22185;48.738;9.324;2023-02-27T05:25:08;-1.20;99.90
36132;DHT22;22185;48.738;9.324;2023-02-27T05:33:56;-1.30;99.90
36132;DHT22;22185;48.738;9.324;2023-02-27T05:36:14;-1.30;99.90
36132;DHT22;22185;48.738;9.324;2023-02-27T05:38:19;-1.30;99.90
36132;DHT22;22185;48.738;9.324;2023-02-27T05:40:24;-1.30;99.90
36132;DHT22;22185;48.738;9.324;2023-02-27T05:42:28;-1.30;99.90
36132;DHT22;22185;48.738;9.324;2023-02-27T05:44:36;-1.30;99.90
36132;DHT22;22185;48.738;9.324;2023-02-27T05:46:40;-1.30;99.90
36132;DHT22;22185;48.738;9.324;2023-02-27T05:48:44;-1.30;99.90
36132;DHT22;22185;48.738;9.324;2023-02-27T05:50:47;-1.40;99.90
36132;DHT22;22185;48.738;9.324;2023-02-27T05:52:50;-1.40;99.90
36132;DHT22;22185;48.738;9.324;2023-02-27T05:55:05;-1.40;99.90
36132;DHT22;22185;48.738;9.324;2023-02-27T05:57:13;-1.40;99.90
36132;DHT22;22185;48.738;9.324;2023-02-27T05:59:18;-1.40;99.90
36132;DHT22;22185;48.738;9.324;2023-02-27T06:01:23;-1.30;99.90
36132;DHT22;22185;48.738;9.324;2023-02-27T06:03:25;-1.40;99.90
36132;DHT22;22185;48.738;9.324;2023-02-27T06:05:27;-1.50;99.90
36132;DHT22;22185;48.738;9.324;2023-02-27T06:07:30;-1.40;99.90
36132;DHT22;22185;48.738;9.324;2023-02-27T06:09:32;-1.40;99.90
36132;DHT22;22185;48.738;9.324;2023-02-27T06:11:34;-1.50;99.90
36132;DHT22;22185;48.738;9.324;2023-02-27T06:13:35;-1.30;99.90
36132;DHT22;22185;48.738;9.324;2023-02-27T06:15:37;-1.40;99.90
36132;DHT22;22185;48.738;9.324;2023-02-27T06:17:39;-1.30;99.90
36132;DHT22;22185;48.738;9.324;2023-02-27T06:19:40;-1.40;99.90
36132;DHT22;22185;48.738;9.324;2023-02-27T06:21:42;-1.40;99.90
36132;DHT22;22185;48.738;9.324;2023-02-27T06:23:44;-1.40;99.90
36132;DHT22;22185;48.738;9.324;2023-02-27T06:25:46;-1.30;99.90
36132;DHT22;22185;48.738;9.324;2023-02-27T06:27:48;-1.30;99.90
36132;DHT22;22185;48.738;9.324;2023-02-27T06:29:50;-1.30;99.90
36132;DHT22;22185;48.738;9.324;2023-02-27T06:31:51;-1.40;99.90
36132;DHT22;22185;48.738;9.324;2023-02-27T06:33:53;-1.40;99.90
36132;DHT22;22185;48.738;9.324;2023-02-27T06:35:56;-1.30;99.90
36132;DHT22;22185;48.738;9.324;2023-02-27T06:37:57;-1.40;99.90
36132;DHT22;22185;48.738;9.324;2023-02-27T06:39:59;-1.40;99.90
36132;DHT22;22185;48.738;9.324;2023-02-27T06:42:01;-1.30;99.90
36132;DHT22;22185;48.738;9.324;2023-02-27T06:44:02;-1.30;99.90
36132;DHT22;22185;48.738;9.324;2023-02-27T06:46:04;-1.30;99.90
36132;DHT22;22185;48.738;9.324;2023-02-27T06:48:06;-1.30;99.90
36132;DHT22;22185;48.738;9.324;2023-02-27T06:50:08;-1.30;99.90
36132;DHT22;22185;48.738;9.324;2023-02-27T06:52:11;-1.20;99.90
36132;DHT22;22185;48.738;9.324;2023-02-27T06:54:13;-1.30;99.90
36132;DHT22;22185;48.738;9.324;2023-02-27T06:56:14;-1.20;99.90
36132;DHT22;22185;48.738;9.324;2023-02-27T06:58:22;-1.20;99.90
36132;DHT22;22185;48.738;9.324;2023-02-27T07:00:25;-1.10;99.90
36132;DHT22;22185;48.738;9.324;2023-02-27T07:02:26;-1.00;99.90
36132;DHT22;22185;48.738;9.324;2023-02-27T07:04:28;-1.00;99.90
36132;DHT22;22185;48.738;9.324;2023-02-27T07:06:30;-1.00;99.90
36132;DHT22;22185;48.738;9.324;2023-02-27T07:08:51;-1.00;99.90
36132;DHT22;22185;48.738;9.324;2023-02-27T07:11:02;-1.00;99.90
36132;DHT22;22185;48.738;9.324;2023-02-27T07:13:03;-1.00;99.90
36132;DHT22;22185;48.738;9.324;2023-02-27T07:15:05;-0.90;99.90
36132;DHT22;22185;48.738;9.324;2023-02-27T07:17:07;-0.90;99.90
36132;DHT22;22185;48.738;9.324;2023-02-27T07:19:09;-0.80;99.90
36132;DHT22;22185;48.738;9.324;2023-02-27T07:21:11;-0.80;99.90
36132;DHT22;22185;48.738;9.324;2023-02-27T07:23:12;-0.80;99.90
36132;DHT22;22185;48.738;9.324;2023-02-27T07:25:14;-0.80;99.90
36132;DHT22;22185;48.738;9.324;2023-02-27T07:27:15;-0.70;99.90
36132;DHT22;22185;48.738;9.324;2023-02-27T07:29:25;-0.60;99.90
36132;DHT22;22185;48.738;9.324;2023-02-27T07:31:27;-0.60;99.90
36132;DHT22;22185;48.738;9.324;2023-02-27T07:33:29;-0.60;99.90
36132;DHT22;22185;48.738;9.324;2023-02-27T07:35:32;-0.50;99.90
36132;DHT22;22185;48.738;9.324;2023-02-27T07:37:36;-0.50;99.90
36132;DHT22;22185;48.738;9.324;2023-02-27T07:39:40;-0.50;99.90
36132;DHT22;22185;48.738;9.324;2023-02-27T07:42:07;-0.40;99.90
36132;DHT22;22185;48.738;9.324;2023-02-27T07:44:09;-0.40;99.90
36132;DHT22;22185;48.738;9.324;2023-02-27T07:46:11;-0.30;99.90
36132;DHT22;22185;48.738;9.324;2023-02-27T07:48:14;-0.30;99.90
36132;DHT22;22185;48.738;9.324;2023-02-27T07:50:16;-0.20;99.90
36132;DHT22;22185;48.738;9.324;2023-02-27T07:52:18;-0.30;99.90
36132;DHT22;22185;48.738;9.324;2023-02-27T07:54:20;-0.20;99.90
36132;DHT22;22185;48.738;9.324;2023-02-27T07:56:22;-0.20;99.90
36132;DHT22;22185;48.738;9.324;2023-02-27T07:58:24;-0.10;99.90
36132;DHT22;22185;48.738;9.324;2023-02-27T08:00:26;-0.10;99.90
36132;DHT22;22185;48.738;9.324;2023-02-27T08:02:28;0.00;99.90
36132;DHT22;22185;48.738;9.324;2023-02-27T08:04:29;0.00;99.90
36132;DHT22;22185;48.738;9.324;2023-02-27T08:06:31;0.10;99.90
36132;DHT22;22185;48.738;9.324;2023-02-27T08:08:33;0.10;99.90
36132;DHT22;22185;48.738;9.324;2023-02-27T08:10:35;0.20;99.90
36132;DHT22;22185;48.738;9.324;2023-02-27T08:12:37;0.20;99.90
36132;DHT22;22185;48.738;9.324;2023-02-27T08:14:39;0.30;99.90
36132;DHT22;22185;48.738;9.324;2023-02-27T08:16:41;0.30;99.90
36132;DHT22;22185;48.738;9.324;2023-02-27T08:18:43;0.30;99.90
36132;DHT22;22185;48.738;9.324;2023-02-27T08:20:45;0.40;99.90
36132;DHT22;22185;48.738;9.324;2023-02-27T08:22:47;0.50;99.90
36132;DHT22;22185;48.738;9.324;2023-02-27T08:24:49;0.50;99.90
36132;DHT22;22185;48.738;9.324;2023-02-27T08:26:50;0.50;99.90
36132;DHT22;22185;48.738;9.324;2023-02-27T08:28:53;0.60;99.90
36132;DHT22;22185;48.738;9.324;2023-02-27T08:30:55;0.60;99.90
36132;DHT22;22185;48.738;9.324;2023-02-27T08:32:56;0.60;99.90
36132;DHT22;22185;48.738;9.324;2023-02-27T08:34:58;0.70;99.90
36132;DHT22;22185;48.738;9.324;2023-02-27T08:37:00;0.80;99.90
36132;DHT22;22185;48.738;9.324;2023-02-27T08:39:01;0.80;99.90
36132;DHT22;22185;48.738;9.324;2023-02-27T08:41:03;0.90;99.90
36132;DHT22;22185;48.738;9.324;2023-02-27T08:43:05;0.90;99.90
36132;DHT22;22185;48.738;9.324;2023-02-27T08:45:07;0.90;99.90
36132;DHT22;22185;48.738;9.324;2023-02-27T08:47:09;1.00;99.90
36132;DHT22;22185;48.738;9.324;2023-02-27T08:49:11;1.10;99.90
36132;DHT22;22185;48.738;9.324;2023-02-27T08:51:16;1.10;99.90
36132;DHT22;22185;48.738;9.324;2023-02-27T08:53:18;1.20;99.90
36132;DHT22;22185;48.738;9.324;2023-02-27T08:55:20;1.30;99.90
36132;DHT22;22185;48.738;9.324;2023-02-27T08:57:21;1.40;99.90
36132;DHT22;22185;48.738;9.324;2023-02-27T08:59:23;1.40;99.90
36132;DHT22;22185;48.738;9.324;2023-02-27T09:01:25;1.40;99.90
36132;DHT22;22185;48.738;9.324;2023-02-27T09:03:30;1.50;99.90
36132;DHT22;22185;48.738;9.324;2023-02-27T09:05:32;1.60;99.90
36132;DHT22;22185;48.738;9.324;2023-02-27T09:07:35;1.60;99.90
36132;DHT22;22185;48.738;9.324;2023-02-27T09:09:37;1.60;99.90
36132;DHT22;22185;48.738;9.324;2023-02-27T09:11:39;1.70;99.90
36132;DHT22;22185;48.738;9.324;2023-02-27T09:13:40;1.70;99.90
36132;DHT22;22185;48.738;9.324;2023-02-27T09:15:42;1.80;99.90
36132;DHT22;22185;48.738;9.324;2023-02-27T09:17:44;1.90;99.90
36132;DHT22;22185;48.738;9.324;2023-02-27T09:19:45;2.00;99.90
36132;DHT22;22185;48.738;9.324;2023-02-27T09:21:47;2.00;99.90
36132;DHT22;22185;48.738;9.324;2023-02-27T09:23:49;2.10;99.90
36132;DHT22;22185;48.738;9.324;2023-02-27T09:25:51;2.20;99.90
36132;DHT22;22185;48.738;9.324;2023-02-27T09:27:53;2.30;99.90
36132;DHT22;22185;48.738;9.324;2023-02-27T09:29:55;2.40;99.90
36132;DHT22;22185;48.738;9.324;2023-02-27T09:31:57;2.50;99.90
36132;DHT22;22185;48.738;9.324;2023-02-27T09:33:58;2.60;99.90
36132;DHT22;22185;48.738;9.324;2023-02-27T09:36:02;2.70;99.90
36132;DHT22;22185;48.738;9.324;2023-02-27T09:38:06;2.80;99.90
36132;DHT22;22185;48.738;9.324;2023-02-27T09:42:23;2.90;99.90
36132;DHT22;22185;48.738;9.324;2023-02-27T09:44:39;2.90;99.90
36132;DHT22;22185;48.738;9.324;2023-02-27T09:46:47;3.00;99.90
36132;DHT22;22185;48.738;9.324;2023-02-27T09:48:51;2.90;99.90
36132;DHT22;22185;48.738;9.324;2023-02-27T09:50:54;3.00;99.90
36132;DHT22;22185;48.738;9.324;2023-02-27T09:52:56;3.10;99.90
36132;DHT22;22185;48.738;9.324;2023-02-27T09:54:57;3.10;99.90
36132;DHT22;22185;48.738;9.324;2023-02-27T09:57:01;3.30;99.90
36132;DHT22;22185;48.738;9.324;2023-02-27T09:59:22;3.40;99.90
36132;DHT22;22185;48.738;9.324;2023-02-27T10:03:38;3.70;99.90
36132;DHT22;22185;48.738;9.324;2023-02-27T10:08:08;3.80;99.90
36132;DHT22;22185;48.738;9.324;2023-02-27T10:10:28;3.80;99.90
36132;DHT22;22185;48.738;9.324;2023-02-27T10:14:58;4.20;99.90
36132;DHT22;22185;48.738;9.324;2023-02-27T10:17:36;4.30;99.90
36132;DHT22;22185;48.738;9.324;2023-02-27T10:19:49;4.40;99.90
36132;DHT22;22185;48.738;9.324;2023-02-27T10:22:32;4.40;99.90
36132;DHT22;22185;48.738;9.324;2023-02-27T10:24:36;4.60;99.90
36132;DHT22;22185;48.738;9.324;2023-02-27T10:26:45;4.70;99.90
36132;DHT22;22185;48.738;9.324;2023-02-27T10:28:59;4.60;99.90
36132;DHT22;22185;48.738;9.324;2023-02-27T10:31:09;4.70;99.90
36132;DHT22;22185;48.738;9.324;2023-02-27T10:35:38;4.70;99.90
36132;DHT22;22185;48.738;9.324;2023-02-27T10:37:48;4.60;99.90
36132;DHT22;22185;48.738;9.324;2023-02-27T10:39:52;5.00;99.90
36132;DHT22;22185;48.738;9.324;2023-02-27T10:41:56;5.00;99.90
36132;DHT22;22185;48.738;9.324;2023-02-27T10:44:00;5.10;99.90
36132;DHT22;22185;48.738;9.324;2023-02-27T10:46:02;4.90;99.90
36132;DHT22;22185;48.738;9.324;2023-02-27T10:48:07;5.20;99.90
36132;DHT22;22185;48.738;9.324;2023-02-27T10:50:29;5.30;99.90
36132;DHT22;22185;48.738;9.324;2023-02-27T10:52:32;5.40;99.90
36132;DHT22;22185;48.738;9.324;2023-02-27T10:54:34;5.60;99.90
36132;DHT22;22185;48.738;9.324;2023-02-27T10:56:36;5.80;99.90
36132;DHT22;22185;48.738;9.324;2023-02-27T10:58:39;5.70;99.90
36132;DHT22;22185;48.738;9.324;2023-02-27T11:00:55;5.70;99.90
36132;DHT22;22185;48.738;9.324;2023-02-27T11:02:57;5.20;99.90
36132;DHT22;22185;48.738;9.324;2023-02-27T11:04:59;5.60;99.90
36132;DHT22;22185;48.738;9.324;2023-02-27T11:07:05;5.60;99.90
36132;DHT22;22185;48.738;9.324;2023-02-27T11:09:24;5.50;99.90
36132;DHT22;22185;48.738;9.324;2023-02-27T11:11:26;5.90;99.90
36132;DHT22;22185;48.738;9.324;2023-02-27T11:13:31;6.10;99.90
36132;DHT22;22185;48.738;9.324;2023-02-27T11:15:35;6.30;99.90
36132;DHT22;22185;48.738;9.324;2023-02-27T11:17:42;6.30;99.90
36132;DHT22;22185;48.738;9.324;2023-02-27T11:19:46;6.10;99.90
36132;DHT22;22185;48.738;9.324;2023-02-27T11:22:02;5.90;99.90
36132;DHT22;22185;48.738;9.324;2023-02-27T11:24:05;5.60;99.90
36132;DHT22;22185;48.738;9.324;2023-02-27T11:26:09;5.20;99.90
36132;DHT22;22185;48.738;9.324;2023-02-27T11:28:27;5.10;99.90
36132;DHT22;22185;48.738;9.324;2023-02-27T11:30:30;5.00;99.90
36132;DHT22;22185;48.738;9.324;2023-02-27T11:32:42;5.50;99.90
36132;DHT22;22185;48.738;9.324;2023-02-27T11:34:48;6.10;99.90
36132;DHT22;22185;48.738;9.324;2023-02-27T11:36:52;6.60;99.90
36132;DHT22;22185;48.738;9.324;2023-02-27T11:38:57;7.40;99.90
36132;DHT22;22185;48.738;9.324;2023-02-27T11:41:05;7.50;99.90
36132;DHT22;22185;48.738;9.324;2023-02-27T11:43:14;7.20;99.90
36132;DHT22;22185;48.738;9.324;2023-02-27T11:47:42;6.20;99.90
36132;DHT22;22185;48.738;9.324;2023-02-27T11:52:13;5.80;99.90
36132;DHT22;22185;48.738;9.324;2023-02-27T11:56:22;5.60;99.90
36132;DHT22;22185;48.738;9.324;2023-02-27T11:58:26;5.90;99.90
36132;DHT22;22185;48.738;9.324;2023-02-27T12:00:32;6.40;99.90
36132;DHT22;22185;48.738;9.324;2023-02-27T12:06:45;8.30;99.90
36132;DHT22;22185;48.738;9.324;2023-02-27T12:08:53;8.70;99.90
36132;DHT22;22185;48.738;9.324;2023-02-27T12:10:59;8.40;99.90
36132;DHT22;22185;48.738;9.324;2023-02-27T12:13:17;7.90;99.90
36132;DHT22;22185;48.738;9.324;2023-02-27T12:17:46;7.30;99.90
36132;DHT22;22185;48.738;9.324;2023-02-27T12:24:15;8.40;99.90
36132;DHT22;22185;48.738;9.324;2023-02-27T12:26:31;7.70;99.90
36132;DHT22;22185;48.738;9.324;2023-02-27T12:31:01;6.70;99.90
36132;DHT22;22185;48.738;9.324;2023-02-27T12:33:38;6.60;99.90
36132;DHT22;22185;48.738;9.324;2023-02-27T12:35:50;6.80;99.90
36132;DHT22;22185;48.738;9.324;2023-02-27T12:41:32;6.60;99.90
36132;DHT22;22185;48.738;9.324;2023-02-27T12:46:14;6.00;99.90
36132;DHT22;22185;48.738;9.324;2023-02-27T12:48:36;6.00;99.90
36132;DHT22;22185;48.738;9.324;2023-02-27T12:51:00;5.70;99.90
36132;DHT22;22185;48.738;9.324;2023-02-27T12:55:26;6.10;99.90
36132;DHT22;22185;48.738;9.324;2023-02-27T13:04:43;7.50;99.90
36132;DHT22;22185;48.738;9.324;2023-02-27T13:06:52;9.50;97.40
36132;DHT22;22185;48.738;9.324;2023-02-27T13:09:09;7.50;99.10
36132;DHT22;22185;48.738;9.324;2023-02-27T13:13:45;5.80;99.40
36132;DHT22;22185;48.738;9.324;2023-02-27T13:15:56;5.70;99.90
36132;DHT22;22185;48.738;9.324;2023-02-27T13:18:15;5.80;99.90
36132;DHT22;22185;48.738;9.324;2023-02-27T13:22:27;6.30;98.70
36132;DHT22;22185;48.738;9.324;2023-02-27T13:24:31;6.00;99.80
36132;DHT22;22185;48.738;9.324;2023-02-27T13:26:44;6.00;99.90
36132;DHT22;22185;48.738;9.324;2023-02-27T13:28:47;6.10;99.90
36132;DHT22;22185;48.738;9.324;2023-02-27T13:35:26;6.90;99.60
36132;DHT22;22185;48.738;9.324;2023-02-27T13:37:51;6.70;99.90
36132;DHT22;22185;48.738;9.324;2023-02-27T13:39:52;6.90;99.90
36132;DHT22;22185;48.738;9.324;2023-02-27T13:41:56;7.80;99.00
36132;DHT22;22185;48.738;9.324;2023-02-27T13:43:58;7.40;99.90
36132;DHT22;22185;48.738;9.324;2023-02-27T13:46:01;6.80;99.30
36132;DHT22;22185;48.738;9.324;2023-02-27T13:48:10;6.40;99.60
36132;DHT22;22185;48.738;9.324;2023-02-27T13:52:33;6.10;99.90
36132;DHT22;22185;48.738;9.324;2023-02-27T13:54:39;6.20;99.90
36132;DHT22;22185;48.738;9.324;2023-02-27T13:57:41;6.20;99.90
36132;DHT22;22185;48.738;9.324;2023-02-27T14:01:17;6.50;99.90
36132;DHT22;22185;48.738;9.324;2023-02-27T14:03:24;9.90;98.40
36132;DHT22;22185;48.738;9.324;2023-02-27T14:07:29;10.40;92.70
36132;DHT22;22185;48.738;9.324;2023-02-27T14:09:33;9.00;93.60
36132;DHT22;22185;48.738;9.324;2023-02-27T14:11:37;8.80;94.60
36132;DHT22;22185;48.738;9.324;2023-02-27T14:15:51;7.10;96.00
36132;DHT22;22185;48.738;9.324;2023-02-27T14:17:54;6.60;97.80
36132;DHT22;22185;48.738;9.324;2023-02-27T14:22:27;7.70;96.10
36132;DHT22;22185;48.738;9.324;2023-02-27T14:24:37;9.00;96.50
36132;DHT22;22185;48.738;9.324;2023-02-27T14:26:51;10.80;94.90
36132;DHT22;22185;48.738;9.324;2023-02-27T14:28:54;12.40;90.30
36132;DHT22;22185;48.738;9.324;2023-02-27T14:31:06;13.40;85.30
36132;DHT22;22185;48.738;9.324;2023-02-27T14:33:13;9.40;90.00
36132;DHT22;22185;48.738;9.324;2023-02-27T14:35:15;7.70;93.00
36132;DHT22;22185;48.738;9.324;2023-02-27T14:37:18;6.80;96.70
36132;DHT22;22185;48.738;9.324;2023-02-27T14:39:31;6.80;97.70
36132;DHT22;22185;48.738;9.324;2023-02-27T14:43:42;6.40;97.60
36132;DHT22;22185;48.738;9.324;2023-02-27T14:45:46;6.30;97.40
36132;DHT22;22185;48.738;9.324;2023-02-27T14:47:48;6.10;97.70
36132;DHT22;22185;48.738;9.324;2023-02-27T14:49:53;5.50;97.90
36132;DHT22;22185;48.738;9.324;2023-02-27T14:51:57;5.70;98.50
36132;DHT22;22185;48.738;9.324;2023-02-27T14:56:16;5.30;99.50
36132;DHT22;22185;48.738;9.324;2023-02-27T14:58:19;5.20;99.30
36132;DHT22;22185;48.738;9.324;2023-02-27T15:02:54;7.70;97.50
36132;DHT22;22185;48.738;9.324;2023-02-27T15:07:01;9.70;93.00
36132;DHT22;22185;48.738;9.324;2023-02-27T15:09:03;7.90;93.00
36132;DHT22;22185;48.738;9.324;2023-02-27T15:11:05;7.30;99.90
36132;DHT22;22185;48.738;9.324;2023-02-27T15:13:14;6.70;99.90
36132;DHT22;22185;48.738;9.324;2023-02-27T15:15:17;6.30;99.90
36132;DHT22;22185;48.738;9.324;2023-02-27T15:17:22;6.20;99.90
36132;DHT22;22185;48.738;9.324;2023-02-27T15:19:24;5.60;99.90
36132;DHT22;22185;48.738;9.324;2023-02-27T15:21:28;5.90;99.90
36132;DHT22;22185;48.738;9.324;2023-02-27T15:23:30;5.70;99.90
36132;DHT22;22185;48.738;9.324;2023-02-27T15:25:34;5.30;99.00
36132;DHT22;22185;48.738;9.324;2023-02-27T15:27:37;5.00;99.90
36132;DHT22;22185;48.738;9.324;2023-02-27T15:29:47;5.10;99.90
36132;DHT22;22185;48.738;9.324;2023-02-27T15:31:49;5.00;99.90
36132;DHT22;22185;48.738;9.324;2023-02-27T15:33:51;4.80;99.90
36132;DHT22;22185;48.738;9.324;2023-02-27T15:35:53;5.20;99.90
36132;DHT22;22185;48.738;9.324;2023-02-27T15:37:57;5.00;99.90